Time;durP1;ratioP1;P1;durP2;ratioP2;P2;SDS_P1;SDS_P2;PMS_P1;PMS_P2;Temp;Humidity;BMP_temperature;BMP_pressure;BME280_temperature;BME280_humidity;BME280_pressure;Samples;Min_cycle;Max_cycle;Signal;HPM_P1;HPM_P2
2022/02/24 00:01:45;;;;;;;16.13;12.15;;;;;;;;;;10317775;28;20072;-54
2022/02/24 00:06:44;;;;;;;9.82;8.68;;;;;;;;;;10317559;28;20079;-54
2022/02/24 00:11:43;;;;;;;7.88;6.60;;;;;;;;;;10317396;28;20076;-54
2022/02/24 00:16:41;;;;;;;7.90;7.05;;;;;;;;;;10306722;28;20084;-54
2022/02/24 00:21:39;;;;;;;8.43;6.63;;;;;;;;;;10275124;28;20049;-55
2022/02/24 00:26:39;;;;;;;5.93;4.90;;;;;;;;;;10271853;28;20516;-53
2022/02/24 00:31:38;;;;;;;5.80;5.25;;;;;;;;;;10277605;28;20071;-54
2022/02/24 00:36:36;;;;;;;11.82;6.07;;;;;;;;;;10316484;28;20072;-55
2022/02/24 00:41:34;;;;;;;8.00;5.22;;;;;;;;;;10274247;28;20074;-52
2022/02/24 00:46:34;;;;;;;7.10;5.05;;;;;;;;;;10271018;28;20103;-55
2022/02/24 00:51:33;;;;;;;6.63;5.45;;;;;;;;;;10270664;28;20484;-53
2022/02/24 00:56:31;;;;;;;4.72;4.22;;;;;;;;;;10271327;28;20073;-56
2022/02/24 01:01:29;;;;;;;8.52;4.10;;;;;;;;;;10271284;28;20088;-55
2022/02/24 01:06:30;;;;;;;5.05;4.43;;;;;;;;;;10273692;28;20072;-55
2022/02/24 01:11:28;;;;;;;5.55;4.82;;;;;;;;;;10271176;28;20076;-55
2022/02/24 01:16:26;;;;;;;5.18;4.68;;;;;;;;;;10275958;28;20069;-53
2022/02/24 01:21:25;;;;;;;6.30;4.80;;;;;;;;;;10272661;28;20128;-56
2022/02/24 01:26:24;;;;;;;7.13;4.55;;;;;;;;;;10265288;28;20076;-55
2022/02/24 01:31:23;;;;;;;6.13;5.10;;;;;;;;;;10268872;28;20095;-56
2022/02/24 01:36:21;;;;;;;7.30;5.93;;;;;;;;;;10268719;28;20033;-52
2022/02/24 01:41:20;;;;;;;7.70;6.10;;;;;;;;;;10269039;28;20080;-54
2022/02/24 01:46:19;;;;;;;6.75;6.05;;;;;;;;;;10269242;28;20085;-55
2022/02/24 01:51:18;;;;;;;8.35;7.05;;;;;;;;;;10270819;28;20081;-52
2022/02/24 01:56:16;;;;;;;6.95;5.30;;;;;;;;;;10270428;28;20072;-55
2022/02/24 02:01:15;;;;;;;7.22;5.28;;;;;;;;;;10270980;28;20076;-56
2022/02/24 02:06:15;;;;;;;6.30;5.55;;;;;;;;;;10265247;28;20087;-55
2022/02/24 02:11:13;;;;;;;8.70;6.57;;;;;;;;;;10275266;28;20073;-53
2022/02/24 02:16:13;;;;;;;9.07;7.03;;;;;;;;;;10267132;28;20060;-54
2022/02/24 02:21:15;;;;;;;8.15;6.43;;;;;;;;;;10269914;28;20080;-55
2022/02/24 02:26:13;;;;;;;8.27;6.68;;;;;;;;;;10268793;28;20073;-56
2022/02/24 02:31:11;;;;;;;9.13;7.18;;;;;;;;;;10271576;28;20060;-55
2022/02/24 02:36:10;;;;;;;9.95;6.28;;;;;;;;;;10268706;28;20095;-53
2022/02/24 02:41:12;;;;;;;9.23;5.70;;;;;;;;;;10269899;28;20091;-56
2022/02/24 02:46:12;;;;;;;5.80;5.18;;;;;;;;;;10273121;28;20052;-53
2022/02/24 02:51:13;;;;;;;5.75;4.93;;;;;;;;;;10270389;28;20474;-55
2022/02/24 02:56:13;;;;;;;10.23;6.63;;;;;;;;;;10267857;28;20450;-53
2022/02/24 03:01:11;;;;;;;10.27;5.05;;;;;;;;;;10269780;28;20121;-54
2022/02/24 03:06:11;;;;;;;7.47;5.93;;;;;;;;;;10269953;28;20084;-52
2022/02/24 03:11:09;;;;;;;7.30;5.70;;;;;;;;;;10271100;28;20080;-54
2022/02/24 03:16:08;;;;;;;9.35;6.22;;;;;;;;;;10266264;28;20536;-54
2022/02/24 03:21:07;;;;;;;10.40;7.97;;;;;;;;;;10266103;28;20068;-54
2022/02/24 03:26:05;;;;;;;6.60;5.90;;;;;;;;;;10269253;28;20079;-54
2022/02/24 03:31:04;;;;;;;7.93;5.45;;;;;;;;;;10274597;28;20069;-54
2022/02/24 03:36:04;;;;;;;8.30;7.05;;;;;;;;;;10274259;28;20453;-54
2022/02/24 03:41:02;;;;;;;10.45;7.97;;;;;;;;;;10274678;28;20076;-54
2022/02/24 03:46:00;;;;;;;8.93;7.63;;;;;;;;;;10274427;28;20089;-55
2022/02/24 03:50:59;;;;;;;7.22;5.88;;;;;;;;;;10274302;28;20091;-54
2022/02/24 03:55:58;;;;;;;9.65;7.05;;;;;;;;;;10274998;28;20045;-53
2022/02/24 04:00:58;;;;;;;8.95;5.45;;;;;;;;;;10274442;28;20088;-54
2022/02/24 04:06:02;;;;;;;10.82;7.10;;;;;;;;;;10272590;28;20061;-54
2022/02/24 04:11:02;;;;;;;10.65;6.80;;;;;;;;;;10278479;28;20072;-54
2022/02/24 04:16:01;;;;;;;8.38;7.03;;;;;;;;;;10272491;28;20045;-53
2022/02/24 04:20:59;;;;;;;13.02;7.82;;;;;;;;;;10277714;28;20151;-55
2022/02/24 04:25:58;;;;;;;11.90;9.98;;;;;;;;;;10272573;28;20079;-54
2022/02/24 04:30:57;;;;;;;10.40;7.78;;;;;;;;;;10277375;28;20041;-54
2022/02/24 04:35:56;;;;;;;11.73;8.65;;;;;;;;;;10270683;28;20410;-56
2022/02/24 04:40:54;;;;;;;10.65;9.40;;;;;;;;;;10280025;28;20084;-55
2022/02/24 04:45:52;;;;;;;13.18;9.73;;;;;;;;;;10276907;28;20072;-54
2022/02/24 04:50:52;;;;;;;13.93;12.05;;;;;;;;;;10271419;28;20103;-55
2022/02/24 04:55:50;;;;;;;64.40;35.90;;;;;;;;;;10273199;28;20087;-57
2022/02/24 05:00:49;;;;;;;70.07;40.13;;;;;;;;;;10268161;28;20079;-55
2022/02/24 05:05:49;;;;;;;21.23;14.65;;;;;;;;;;10270213;28;20037;-55
2022/02/24 05:10:52;;;;;;;25.67;18.02;;;;;;;;;;10263073;28;20069;-55
2022/02/24 05:15:51;;;;;;;34.65;24.30;;;;;;;;;;10276175;28;20170;-55
2022/02/24 05:20:50;;;;;;;19.90;15.65;;;;;;;;;;10269112;28;20064;-55
2022/02/24 05:25:48;;;;;;;16.23;12.50;;;;;;;;;;10284606;28;20091;-56
2022/02/24 05:30:58;;;;;;;14.82;11.95;;;;;;;;;;10269140;28;20470;-57
2022/02/24 05:35:57;;;;;;;13.20;10.25;;;;;;;;;;10273616;28;20076;-54
2022/02/24 05:40:55;;;;;;;10.90;7.95;;;;;;;;;;10272966;28;20623;-55
2022/02/24 05:45:55;;;;;;;236.50;128.23;;;;;;;;;;10261931;28;20076;-55
2022/02/24 05:50:54;;;;;;;20.42;13.85;;;;;;;;;;10272939;28;20072;-56
2022/02/24 05:55:52;;;;;;;18.35;14.30;;;;;;;;;;10267785;28;20443;-54
2022/02/24 06:00:50;;;;;;;21.23;14.77;;;;;;;;;;10262880;28;20076;-56
2022/02/24 06:05:51;;;;;;;20.75;15.75;;;;;;;;;;10267474;28;20099;-55
2022/02/24 06:10:50;;;;;;;23.98;17.52;;;;;;;;;;10271376;28;20072;-56
2022/02/24 06:15:48;;;;;;;16.45;13.85;;;;;;;;;;10249905;28;20074;-54
2022/02/24 06:20:47;;;;;;;24.60;19.65;;;;;;;;;;10260747;28;20506;-54
2022/02/24 06:25:47;;;;;;;22.10;16.77;;;;;;;;;;10259750;28;20076;-56
2022/02/24 06:30:45;;;;;;;17.00;15.15;;;;;;;;;;10251355;28;20069;-55
2022/02/24 06:35:44;;;;;;;17.10;12.98;;;;;;;;;;10249858;28;20065;-55
2022/02/24 06:40:42;;;;;;;50.95;34.05;;;;;;;;;;10274234;28;20076;-55
2022/02/24 06:45:42;;;;;;;17.52;12.43;;;;;;;;;;10310717;28;20080;-54
2022/02/24 06:50:41;;;;;;;17.20;13.25;;;;;;;;;;10310448;28;20068;-54
2022/02/24 06:55:39;;;;;;;13.73;9.15;;;;;;;;;;10292205;28;20072;-54
2022/02/24 07:00:38;;;;;;;13.75;11.32;;;;;;;;;;10266089;28;20088;-56
2022/02/24 07:05:38;;;;;;;16.88;15.10;;;;;;;;;;10280607;28;20081;-54
2022/02/24 07:10:36;;;;;;;15.57;10.27;;;;;;;;;;10280618;28;20049;-54
2022/02/24 07:15:36;;;;;;;25.85;19.63;;;;;;;;;;10273480;28;20079;-55
2022/02/24 07:20:38;;;;;;;20.08;14.85;;;;;;;;;;10275330;28;20099;-54
2022/02/24 07:25:39;;;;;;;12.82;8.55;;;;;;;;;;10273453;28;20068;-55
2022/02/24 07:30:39;;;;;;;14.23;9.60;;;;;;;;;;10273868;28;20056;-57
2022/02/24 07:35:39;;;;;;;9.10;7.78;;;;;;;;;;10279600;28;20037;-55
2022/02/24 07:40:38;;;;;;;13.38;10.57;;;;;;;;;;10278841;28;20072;-56
2022/02/24 07:45:36;;;;;;;13.90;9.40;;;;;;;;;;10278959;28;20446;-55
2022/02/24 07:50:34;;;;;;;9.63;7.78;;;;;;;;;;10272245;28;20077;-54
2022/02/24 07:55:34;;;;;;;9.65;8.65;;;;;;;;;;10273494;28;20121;-53
2022/02/24 08:00:32;;;;;;;8.73;7.82;;;;;;;;;;10273571;28;20069;-55
2022/02/24 08:05:31;;;;;;;10.45;7.70;;;;;;;;;;10272191;28;20672;-54
2022/02/24 08:10:30;;;;;;;11.98;8.55;;;;;;;;;;10272634;28;20424;-54
2022/02/24 08:15:30;;;;;;;9.27;7.78;;;;;;;;;;10272616;28;20076;-55
2022/02/24 08:20:28;;;;;;;9.10;8.05;;;;;;;;;;10273074;28;20084;-52
2022/02/24 08:25:26;;;;;;;20.83;14.95;;;;;;;;;;10273445;28;20073;-57
2022/02/24 08:30:25;;;;;;;36.05;28.83;;;;;;;;;;10272487;28;20072;-55
2022/02/24 08:35:25;;;;;;;15.30;7.82;;;;;;;;;;10272224;28;20076;-55
2022/02/24 08:40:24;;;;;;;11.38;7.75;;;;;;;;;;10271808;28;20080;-54
2022/02/24 08:45:22;;;;;;;9.73;7.57;;;;;;;;;;10272167;28;20076;-56
2022/02/24 08:50:21;;;;;;;15.70;8.98;;;;;;;;;;10190119;28;20045;-56
2022/02/24 08:55:36;;;;;;;8.98;6.75;;;;;;;;;;10191656;28;20104;-56
2022/02/24 09:00:35;;;;;;;8.90;6.32;;;;;;;;;;10187999;28;20333;-55
2022/02/24 09:05:33;;;;;;;9.27;5.88;;;;;;;;;;10196039;28;20061;-56
2022/02/24 09:10:32;;;;;;;6.95;6.25;;;;;;;;;;10196041;28;20068;-56
2022/02/24 09:15:32;;;;;;;10.18;7.78;;;;;;;;;;10188380;28;20084;-57
2022/02/24 09:20:33;;;;;;;8.02;7.22;;;;;;;;;;10195170;28;20120;-55
2022/02/24 09:25:32;;;;;;;28.08;19.85;;;;;;;;;;10194828;28;20080;-55
2022/02/24 09:30:32;;;;;;;20.73;12.07;;;;;;;;;;10188399;28;20487;-56
2022/02/24 09:35:35;;;;;;;11.55;8.52;;;;;;;;;;10190017;28;20065;-56
2022/02/24 09:40:34;;;;;;;41.22;30.25;;;;;;;;;;10187438;28;20192;-55
2022/02/24 09:45:51;;;;;;;15.32;7.65;;;;;;;;;;10196486;28;20041;-53
2022/02/24 09:50:50;;;;;;;9.70;7.22;;;;;;;;;;10267783;28;20072;-56
2022/02/24 09:55:49;;;;;;;14.02;10.32;;;;;;;;;;10268474;28;20068;-55
2022/02/24 10:00:47;;;;;;;7.18;6.00;;;;;;;;;;10268523;28;20077;-53
2022/02/24 10:05:48;;;;;;;20.48;12.43;;;;;;;;;;10266755;28;20696;-55
2022/02/24 10:10:46;;;;;;;13.88;8.45;;;;;;;;;;10267559;28;20037;-55
2022/02/24 10:15:45;;;;;;;13.18;7.20;;;;;;;;;;10273914;28;20072;-54
2022/02/24 10:20:44;;;;;;;14.88;9.20;;;;;;;;;;10272990;28;20084;-55
2022/02/24 10:25:45;;;;;;;7.95;5.95;;;;;;;;;;10274112;28;20094;-55
2022/02/24 10:30:50;;;;;;;15.65;7.32;;;;;;;;;;10265353;28;20068;-56
2022/02/24 10:35:49;;;;;;;11.35;7.85;;;;;;;;;;10285537;28;20060;-55
2022/02/24 10:40:49;;;;;;;13.10;9.13;;;;;;;;;;10294836;28;20110;-57
2022/02/24 10:45:48;;;;;;;23.52;14.68;;;;;;;;;;10276072;28;20080;-55
2022/02/24 10:50:56;;;;;;;8.10;6.38;;;;;;;;;;10276804;28;20099;-55
2022/02/24 10:56:00;;;;;;;7.10;5.70;;;;;;;;;;10277114;28;20084;-54
2022/02/24 11:01:08;;;;;;;12.68;7.65;;;;;;;;;;10276702;28;20088;-56
2022/02/24 11:06:08;;;;;;;14.32;7.07;;;;;;;;;;10274364;28;20087;-56
2022/02/24 11:11:07;;;;;;;8.52;4.20;;;;;;;;;;10280746;28;20076;-56
2022/02/24 11:16:06;;;;;;;12.43;8.38;;;;;;;;;;10280239;28;20080;-55
2022/02/24 11:21:05;;;;;;;15.30;9.90;;;;;;;;;;10316990;28;20309;-53
2022/02/24 11:26:07;;;;;;;14.10;9.07;;;;;;;;;;10274563;28;20081;-55
2022/02/24 11:31:15;;;;;;;8.88;5.28;;;;;;;;;;10280062;28;20102;-56
2022/02/24 11:36:16;;;;;;;5.45;4.63;;;;;;;;;;10279750;28;20048;-55
2022/02/24 11:41:17;;;;;;;7.32;5.13;;;;;;;;;;10276445;28;20167;-53
2022/02/24 11:46:17;;;;;;;15.93;10.00;;;;;;;;;;10272144;28;20275;-53
2022/02/24 11:51:17;;;;;;;9.00;7.18;;;;;;;;;;10275138;28;20064;-54
2022/02/24 11:56:19;;;;;;;9.98;6.20;;;;;;;;;;10278933;28;20076;-55
2022/02/24 12:01:24;;;;;;;15.20;10.88;;;;;;;;;;10277186;28;20075;-55
2022/02/24 12:06:36;;;;;;;19.65;12.30;;;;;;;;;;10271597;28;20064;-55
2022/02/24 12:11:36;;;;;;;10.45;7.43;;;;;;;;;;10278424;28;20092;-53
2022/02/24 12:16:36;;;;;;;14.30;9.73;;;;;;;;;;10274789;28;20532;-56
2022/02/24 12:21:35;;;;;;;12.18;10.10;;;;;;;;;;10271295;28;20096;-53
2022/02/24 12:26:37;;;;;;;22.98;14.77;;;;;;;;;;10273817;28;20072;-56
2022/02/24 12:31:37;;;;;;;8.70;6.82;;;;;;;;;;10274467;28;20069;-54
2022/02/24 12:36:36;;;;;;;11.73;5.70;;;;;;;;;;10277249;28;20045;-55
2022/02/24 12:41:34;;;;;;;12.07;6.72;;;;;;;;;;10274067;28;20518;-53
2022/02/24 12:46:32;;;;;;;13.57;8.25;;;;;;;;;;10271453;28;20084;-55
2022/02/24 12:51:32;;;;;;;9.65;6.90;;;;;;;;;;10270659;28;20072;-55
2022/02/24 12:56:36;;;;;;;16.58;13.85;;;;;;;;;;10272564;28;20076;-56
2022/02/24 13:01:35;;;;;;;19.35;10.07;;;;;;;;;;10269824;28;20080;-55
2022/02/24 13:06:35;;;;;;;15.90;10.45;;;;;;;;;;10271277;28;20072;-56
2022/02/24 13:11:34;;;;;;;6.38;4.70;;;;;;;;;;10272218;28;20067;-56
2022/02/24 13:16:35;;;;;;;8.45;5.88;;;;;;;;;;10268628;28;20070;-54
2022/02/24 13:21:35;;;;;;;15.45;8.43;;;;;;;;;;10273610;28;20079;-55
2022/02/24 13:26:35;;;;;;;11.60;6.78;;;;;;;;;;10275479;28;20506;-54
2022/02/24 13:32:08;;;;;;;10.25;6.78;;;;;;;;;;10271662;28;20469;-54
2022/02/24 13:37:08;;;;;;;11.95;7.75;;;;;;;;;;10268538;28;20077;-57
2022/02/24 13:42:07;;;;;;;20.30;7.75;;;;;;;;;;10274065;28;20079;-56
2022/02/24 13:47:06;;;;;;;7.80;6.68;;;;;;;;;;10274170;28;20088;-54
2022/02/24 13:52:06;;;;;;;11.82;7.70;;;;;;;;;;10268793;28;20117;-54
2022/02/24 13:57:05;;;;;;;10.50;8.32;;;;;;;;;;10270109;28;20072;-54
2022/02/24 14:02:11;;;;;;;20.15;13.65;;;;;;;;;;10272330;28;20091;-55
2022/02/24 14:07:10;;;;;;;33.13;26.65;;;;;;;;;;10273648;28;20436;-54
2022/02/24 14:12:10;;;;;;;34.70;22.88;;;;;;;;;;10272430;28;20088;-55
2022/02/24 14:17:08;;;;;;;19.02;11.82;;;;;;;;;;10273599;28;20080;-55
2022/02/24 14:22:07;;;;;;;24.35;12.55;;;;;;;;;;10269867;28;20076;-56
2022/02/24 14:27:10;;;;;;;20.77;12.98;;;;;;;;;;10293373;28;20048;-55
2022/02/24 14:32:09;;;;;;;47.63;27.10;;;;;;;;;;10307944;28;20045;-56
2022/02/24 14:37:07;;;;;;;92.57;55.13;;;;;;;;;;10268795;28;20600;-54
2022/02/24 14:42:05;;;;;;;172.38;88.35;;;;;;;;;;10271274;28;20081;-54
2022/02/24 14:47:05;;;;;;;196.23;104.30;;;;;;;;;;10263187;28;20084;-54
2022/02/24 14:52:04;;;;;;;97.85;62.40;;;;;;;;;;10294705;28;20505;-54
2022/02/24 14:57:07;;;;;;;44.05;27.50;;;;;;;;;;10311666;28;20068;-57
2022/02/24 15:02:07;;;;;;;25.38;18.50;;;;;;;;;;10311552;28;20083;-54
2022/02/24 15:07:15;;;;;;;26.30;21.80;;;;;;;;;;10294703;28;20078;-55
2022/02/24 15:12:14;;;;;;;20.38;15.77;;;;;;;;;;10266511;28;20073;-54
2022/02/24 15:17:13;;;;;;;15.23;10.60;;;;;;;;;;10280929;28;20079;-54
2022/02/24 15:22:11;;;;;;;35.58;22.92;;;;;;;;;;10271003;28;20068;-55
2022/02/24 15:27:10;;;;;;;25.08;18.92;;;;;;;;;;10286985;28;20511;-56
2022/02/24 15:32:08;;;;;;;31.42;14.20;;;;;;;;;;10273101;28;20079;-54
2022/02/24 15:37:08;;;;;;;37.05;27.20;;;;;;;;;;10278995;28;20145;-57
2022/02/24 15:42:06;;;;;;;30.10;19.83;;;;;;;;;;10278693;28;20073;-54
2022/02/24 15:47:05;;;;;;;34.33;20.80;;;;;;;;;;10278961;28;20067;-55
2022/02/24 15:52:24;;;;;;;25.75;13.15;;;;;;;;;;10271213;28;20120;-56
2022/02/24 15:57:23;;;;;;;27.05;16.52;;;;;;;;;;10273024;28;20045;-53
2022/02/24 16:02:21;;;;;;;39.00;25.33;;;;;;;;;;10273116;28;20287;-55
2022/02/24 16:07:20;;;;;;;48.13;22.55;;;;;;;;;;10272997;28;20087;-55
2022/02/24 16:12:20;;;;;;;26.05;17.33;;;;;;;;;;10287363;28;20160;-56
2022/02/24 16:17:18;;;;;;;52.35;33.08;;;;;;;;;;10291185;28;20455;-56
2022/02/24 16:22:17;;;;;;;118.25;59.63;;;;;;;;;;10282067;28;20064;-55
2022/02/24 16:27:18;;;;;;;117.38;64.85;;;;;;;;;;10271969;28;20061;-54
2022/02/24 16:32:18;;;;;;;189.35;99.22;;;;;;;;;;10287518;28;20077;-50
2022/02/24 16:37:16;;;;;;;154.50;82.05;;;;;;;;;;10301449;28;20067;-56
2022/02/24 16:42:14;;;;;;;74.88;43.90;;;;;;;;;;10316207;28;20060;-54
2022/02/24 16:47:14;;;;;;;39.78;24.63;;;;;;;;;;10315068;28;20437;-55
2022/02/24 16:52:13;;;;;;;24.45;16.85;;;;;;;;;;10298966;28;20286;-55
2022/02/24 16:57:12;;;;;;;41.78;26.20;;;;;;;;;;10270216;28;20061;-54
2022/02/24 17:02:30;;;;;;;63.80;38.50;;;;;;;;;;10262485;28;20071;-56
2022/02/24 17:07:31;;;;;;;79.10;48.97;;;;;;;;;;10278502;28;20081;-53
2022/02/24 17:12:31;;;;;;;87.28;50.83;;;;;;;;;;10268317;28;20521;-54
2022/02/24 17:17:29;;;;;;;93.82;60.97;;;;;;;;;;10278551;28;20064;-54
2022/02/24 17:22:27;;;;;;;99.97;65.93;;;;;;;;;;10274601;28;20072;-51
2022/02/24 17:27:27;;;;;;;123.03;75.38;;;;;;;;;;10265765;28;20475;-52
2022/02/24 17:32:25;;;;;;;62.95;44.95;;;;;;;;;;10276406;28;20477;-54
2022/02/24 17:37:24;;;;;;;100.82;67.65;;;;;;;;;;10273779;28;20674;-55
2022/02/24 17:42:22;;;;;;;95.13;65.80;;;;;;;;;;10274156;28;20051;-55
2022/02/24 17:47:22;;;;;;;93.28;61.85;;;;;;;;;;10267772;28;20077;-54
2022/02/24 17:52:22;;;;;;;92.35;54.30;;;;;;;;;;10296518;28;20425;-53
2022/02/24 17:57:23;;;;;;;98.47;57.50;;;;;;;;;;10313315;28;20078;-53
2022/02/24 18:02:23;;;;;;;80.20;52.10;;;;;;;;;;10312537;28;20068;-55
2022/02/24 18:07:22;;;;;;;71.78;44.72;;;;;;;;;;10296760;28;20072;-55
2022/02/24 18:12:20;;;;;;;73.55;44.22;;;;;;;;;;10273103;28;20420;-54
2022/02/24 18:17:18;;;;;;;71.75;44.85;;;;;;;;;;10272908;28;20517;-53
2022/02/24 18:22:20;;;;;;;56.08;39.35;;;;;;;;;;10267654;28;20077;-53
2022/02/24 18:27:18;;;;;;;68.18;45.80;;;;;;;;;;10262690;28;20087;-53
2022/02/24 18:32:16;;;;;;;75.82;53.92;;;;;;;;;;10249786;28;20061;-53
2022/02/24 18:37:15;;;;;;;73.80;52.60;;;;;;;;;;10246612;28;20076;-52
2022/02/24 18:42:14;;;;;;;68.28;48.10;;;;;;;;;;10256897;28;20541;-54
2022/02/24 18:47:13;;;;;;;102.78;63.67;;;;;;;;;;10247035;28;20087;-55
2022/02/24 18:52:11;;;;;;;55.75;42.40;;;;;;;;;;10252016;28;20501;-54
2022/02/24 18:57:09;;;;;;;42.28;31.08;;;;;;;;;;10267276;28;20095;-51
2022/02/24 19:02:09;;;;;;;43.40;32.28;;;;;;;;;;10277464;28;20474;-55
2022/02/24 19:07:09;;;;;;;52.72;32.08;;;;;;;;;;10262183;28;20079;-54
2022/02/24 19:12:19;;;;;;;50.53;35.42;;;;;;;;;;10252368;28;20073;-55
2022/02/24 19:17:19;;;;;;;57.55;34.17;;;;;;;;;;10255537;28;20541;-56
2022/02/24 19:22:17;;;;;;;33.88;22.63;;;;;;;;;;10251788;28;20068;-54
2022/02/24 19:27:15;;;;;;;27.02;19.80;;;;;;;;;;10276552;28;20128;-54
2022/02/24 19:32:14;;;;;;;35.95;19.00;;;;;;;;;;10256943;28;20450;-55
2022/02/24 19:37:14;;;;;;;33.60;20.13;;;;;;;;;;10260211;28;20088;-55
2022/02/24 19:42:13;;;;;;;34.85;20.00;;;;;;;;;;10251797;28;20470;-54
2022/02/24 19:47:11;;;;;;;28.10;18.35;;;;;;;;;;10247932;28;20652;-55
2022/02/24 19:52:09;;;;;;;48.15;27.10;;;;;;;;;;10251363;28;20072;-53
2022/02/24 19:57:10;;;;;;;44.63;28.38;;;;;;;;;;10252780;28;20071;-56
2022/02/24 20:02:10;;;;;;;48.20;33.13;;;;;;;;;;10275025;28;20469;-56
2022/02/24 20:07:08;;;;;;;32.13;21.83;;;;;;;;;;10261866;28;20069;-56
2022/02/24 20:12:08;;;;;;;33.75;22.70;;;;;;;;;;10268642;28;20073;-52
2022/02/24 20:17:09;;;;;;;39.15;25.00;;;;;;;;;;10250519;28;20074;-55
2022/02/24 20:22:07;;;;;;;38.38;25.42;;;;;;;;;;10257407;28;20069;-55
2022/02/24 20:27:06;;;;;;;39.17;26.88;;;;;;;;;;10265538;28;20077;-55
2022/02/24 20:32:05;;;;;;;34.10;22.88;;;;;;;;;;10269752;28;20057;-52
2022/02/24 20:37:05;;;;;;;39.35;25.92;;;;;;;;;;10262964;28;20075;-54
2022/02/24 20:42:04;;;;;;;37.17;27.52;;;;;;;;;;10262056;28;20075;-52
2022/02/24 20:47:02;;;;;;;42.85;25.83;;;;;;;;;;10259975;28;20085;-55
2022/02/24 20:52:01;;;;;;;35.95;24.23;;;;;;;;;;10254717;28;20061;-55
2022/02/24 20:57:01;;;;;;;30.70;22.38;;;;;;;;;;10286816;28;20083;-55
2022/02/24 21:01:59;;;;;;;90.15;58.30;;;;;;;;;;10297166;28;20073;-54
2022/02/24 21:06:58;;;;;;;263.48;143.10;;;;;;;;;;10264154;28;20077;-55
2022/02/24 21:11:56;;;;;;;123.65;70.60;;;;;;;;;;10267308;28;20510;-56
2022/02/24 21:17:02;;;;;;;105.57;57.88;;;;;;;;;;10262340;28;20075;-55
2022/02/24 21:22:00;;;;;;;77.82;47.92;;;;;;;;;;10259205;28;20525;-56
2022/02/24 21:26:59;;;;;;;68.72;43.75;;;;;;;;;;10253645;28;20064;-56
2022/02/24 21:31:57;;;;;;;55.97;35.00;;;;;;;;;;10255300;28;20528;-57
2022/02/24 21:36:57;;;;;;;53.88;37.22;;;;;;;;;;10257178;28;20122;-56
2022/02/24 21:41:55;;;;;;;40.78;25.30;;;;;;;;;;10271943;28;20088;-56
2022/02/24 21:46:55;;;;;;;27.20;19.05;;;;;;;;;;10291290;28;20084;-53
2022/02/24 21:51:54;;;;;;;34.38;18.77;;;;;;;;;;10313680;28;20076;-54
2022/02/24 21:56:53;;;;;;;44.30;29.02;;;;;;;;;;10301274;28;20482;-56
2022/02/24 22:01:52;;;;;;;40.88;23.35;;;;;;;;;;10286838;28;20380;-55
2022/02/24 22:06:50;;;;;;;25.75;16.90;;;;;;;;;;10263574;28;20080;-56
2022/02/24 22:11:48;;;;;;;30.52;17.27;;;;;;;;;;10274079;28;20041;-55
2022/02/24 22:16:52;;;;;;;25.52;16.33;;;;;;;;;;10267938;28;20065;-56
2022/02/24 22:21:50;;;;;;;28.80;17.77;;;;;;;;;;10272037;28;20041;-56
2022/02/24 22:26:49;;;;;;;25.42;17.35;;;;;;;;;;10267704;28;20099;-54
2022/02/24 22:31:47;;;;;;;24.40;16.98;;;;;;;;;;10276755;28;20418;-53
2022/02/24 22:36:47;;;;;;;25.30;15.73;;;;;;;;;;10282399;28;20494;-56
2022/02/24 22:41:45;;;;;;;21.73;15.43;;;;;;;;;;10277694;28;20096;-56
2022/02/24 22:46:44;;;;;;;22.92;14.00;;;;;;;;;;10272395;28;20489;-56
2022/02/24 22:51:42;;;;;;;22.73;16.40;;;;;;;;;;10276803;28;20498;-56
2022/02/24 22:56:42;;;;;;;20.58;15.18;;;;;;;;;;10271542;28;20080;-54
2022/02/24 23:01:40;;;;;;;29.83;18.15;;;;;;;;;;10274867;28;20080;-56
2022/02/24 23:06:39;;;;;;;23.98;16.80;;;;;;;;;;10275575;28;20072;-56
2022/02/24 23:11:37;;;;;;;20.05;15.23;;;;;;;;;;10278684;28;20068;-53
2022/02/24 23:16:38;;;;;;;20.45;14.55;;;;;;;;;;10277971;28;20104;-53
2022/02/24 23:21:38;;;;;;;25.23;16.25;;;;;;;;;;10292762;28;20425;-54
2022/02/24 23:26:36;;;;;;;24.33;16.08;;;;;;;;;;10281972;28;20514;-54
2022/02/24 23:31:37;;;;;;;24.83;17.63;;;;;;;;;;10276871;28;20093;-56
2022/02/24 23:36:35;;;;;;;22.48;15.50;;;;;;;;;;10292034;28;20075;-53
2022/02/24 23:41:33;;;;;;;20.73;13.48;;;;;;;;;;10308061;28;20073;-54
2022/02/24 23:46:32;;;;;;;20.00;13.85;;;;;;;;;;10276849;28;20080;-56
2022/02/24 23:51:32;;;;;;;17.17;10.80;;;;;;;;;;10279524;28;20084;-55
2022/02/24 23:56:30;;;;;;;13.05;9.90;;;;;;;;;;10271510;28;20529;-56
